»·PEaware :: N1CA KPSP-KTOA

N1CA :: KPSP-KTOA

FLIGHT INFORMATION

Flight Status: Arrived
Operator: Privately registered:
United States
More flights under this callsign
Pilot: Trip G. (31414)
Aircraft: CESSNA 172 SKYHAWK
(C172)
More flights by this aircraft type
Origin: KPSP Palm Springs Intl
United States
Destination: KTOA Zamperini
United States
More flights between these airports :: More routes between these airports
Route:
File this flight plan on PilotEdge
Remarks:
Altitude:
(Current/Filed)
4,500ft
Speed:
(Current/Filed)
120kts
Departed: 23-Dec-20 10:21 AM
Arrived: 23-Dec-20 11:19 AM
Distance/Time
Traveled:
92nm/0:57
Distance/Time
To Go:
Arrived

Flight Plot

Page will automatically refresh every two minutes.

Flight plan parsing failed; only flown route is shown


Map Options




Map Legend


Flown Route
Filed Route
Departure Airport
Arrival Airport
Navaid (VOR, NDB)
Fix

Horizontal Profiles

Position Reports

Time Latitude Longitude Heading Altitude Ground
Speed
23-Dec-20 10:03 33.825701 -116.507918 100 481ft 0kts
23-Dec-20 10:04 33.825701 -116.507918 100 481ft 0kts
23-Dec-20 10:05 33.825701 -116.507918 100 481ft 0kts
23-Dec-20 10:06 33.825701 -116.507918 100 481ft 0kts
23-Dec-20 10:07 33.825701 -116.507918 100 481ft 0kts
23-Dec-20 10:08 33.825701 -116.507918 100 481ft 0kts
23-Dec-20 10:09 33.825700 -116.507918 100 481ft 0kts
23-Dec-20 10:10 33.825701 -116.507918 100 481ft 0kts
23-Dec-20 10:11 33.825690 -116.507317 75 481ft 6kts
23-Dec-20 10:12 33.825366 -116.506268 92 481ft 7kts
23-Dec-20 10:13 33.823777 -116.504484 141 481ft 10kts
23-Dec-20 10:14 33.820698 -116.501725 142 481ft 16kts
23-Dec-20 10:15 33.818463 -116.499206 86 481ft 0kts
23-Dec-20 10:16 33.818463 -116.499206 86 481ft 0kts
23-Dec-20 10:17 33.818463 -116.499206 86 481ft 0kts
23-Dec-20 10:18 33.818463 -116.499206 86 481ft 0kts
23-Dec-20 10:19 33.818583 -116.498328 64 481ft 6kts
23-Dec-20 10:20 33.827178 -116.505294 323 712ft 79kts
23-Dec-20 10:21 33.844482 -116.520899 322 1660ft 80kts
23-Dec-20 10:22 33.862826 -116.537186 322 2530ft 85kts
23-Dec-20 10:23 33.881435 -116.555017 322 3356ft 88kts
23-Dec-20 10:24 33.900308 -116.572560 321 4173ft 83kts
23-Dec-20 10:25 33.918793 -116.588793 325 4511ft 88kts
23-Dec-20 10:26 33.939437 -116.612660 275 4517ft 116kts
23-Dec-20 10:27 33.929092 -116.649700 263 4520ft 119kts
23-Dec-20 10:28 33.925790 -116.690171 264 4520ft 121kts
23-Dec-20 10:29 33.922648 -116.730478 264 4520ft 120kts
23-Dec-20 10:30 33.919717 -116.769139 264 4519ft 111kts
23-Dec-20 10:31 33.916967 -116.806424 265 4520ft 112kts
23-Dec-20 10:32 33.914294 -116.844002 265 4520ft 112kts
23-Dec-20 10:33 33.911613 -116.882600 265 4520ft 112kts
23-Dec-20 10:34 33.909103 -116.920145 265 4512ft 113kts
23-Dec-20 10:35 33.906579 -116.959368 265 4379ft 115kts
23-Dec-20 10:36 33.904214 -116.997345 265 4381ft 113kts
23-Dec-20 10:37 33.901954 -117.034976 266 4381ft 112kts
23-Dec-20 10:38 33.899742 -117.073286 266 4381ft 115kts
23-Dec-20 10:39 33.897595 -117.112017 266 4381ft 115kts
23-Dec-20 10:40 33.895539 -117.150704 266 4381ft 115kts
23-Dec-20 10:41 33.893570 -117.189371 266 4381ft 115kts
23-Dec-20 10:42 33.891685 -117.228142 267 4381ft 115kts
23-Dec-20 10:43 33.889891 -117.266812 267 4381ft 115kts
23-Dec-20 10:44 33.888178 -117.305628 267 4381ft 115kts
23-Dec-20 10:45 33.886237 -117.344247 261 4380ft 115kts
23-Dec-20 10:46 33.880825 -117.382519 260 4381ft 115kts
23-Dec-20 10:47 33.875849 -117.420844 267 4381ft 115kts
23-Dec-20 10:48 33.874943 -117.459668 269 4381ft 116kts
23-Dec-20 10:49 33.874186 -117.498546 269 4381ft 116kts
23-Dec-20 10:50 33.873512 -117.537292 269 4381ft 116kts
23-Dec-20 10:51 33.868044 -117.575489 256 4381ft 116kts
23-Dec-20 10:52 33.860369 -117.613145 260 4381ft 116kts
23-Dec-20 10:53 33.856447 -117.651679 263 4381ft 116kts
23-Dec-20 10:54 33.852740 -117.690222 263 4381ft 116kts
23-Dec-20 10:55 33.849116 -117.728806 263 4381ft 116kts
23-Dec-20 10:56 33.845565 -117.767550 263 4381ft 116kts
23-Dec-20 10:57 33.842119 -117.806113 264 4381ft 116kts
23-Dec-20 10:58 33.838760 -117.844680 264 4381ft 116kts
23-Dec-20 10:59 33.835487 -117.883262 264 4381ft 116kts
23-Dec-20 11:00 33.832300 -117.921877 264 4380ft 115kts
23-Dec-20 11:01 33.829266 -117.959606 264 4381ft 112kts
23-Dec-20 11:02 33.826201 -117.999110 264 3979ft 120kts
23-Dec-20 11:03 33.823101 -118.040331 265 3463ft 119kts
23-Dec-20 11:04 33.820204 -118.080096 265 2962ft 119kts
23-Dec-20 11:05 33.817506 -118.118024 265 2827ft 100kts
23-Dec-20 11:06 33.815000 -118.154293 265 2830ft 117kts
23-Dec-20 11:07 33.812369 -118.194002 265 2829ft 119kts
23-Dec-20 11:08 33.809831 -118.233742 266 2824ft 110kts
23-Dec-20 11:09 33.807815 -118.265770 266 2826ft 86kts
23-Dec-20 11:10 33.806072 -118.293586 262 2679ft 92kts
23-Dec-20 11:11 33.799424 -118.325996 301 1353ft 86kts
23-Dec-20 11:12 33.811517 -118.349462 311 1120ft 77kts
23-Dec-20 11:13 33.831261 -118.350252 22 778ft 85kts
23-Dec-20 11:14 33.823831 -118.331046 146 645ft 71kts
23-Dec-20 11:15 33.805442 -118.319739 149 693ft 75kts
23-Dec-20 11:16 33.790315 -118.316164 278 871ft 60kts
23-Dec-20 11:17 33.799351 -118.332694 309 163ft 56kts
23-Dec-20 11:18 33.804796 -118.340748 307 107ft 17kts
23-Dec-20 11:19 33.805791 -118.343533 288 107ft 6kts
23-Dec-20 11:20 33.805841 -118.343724 288 107ft 0kts
23-Dec-20 11:21 33.805650 -118.345270 217 107ft 6kts
23-Dec-20 11:23 33.805480 -118.347279 305 107ft 5kts

Navigation Log

Ident Type
Flight plan parsing failed, navigation log unavailable